createdAt,value
2018-09-22T00:01:27.193Z,1.63
2018-09-22T00:03:55.354Z,1.20
2018-09-22T00:06:23.512Z,1.30
2018-09-22T00:08:51.688Z,1.60
2018-09-22T00:11:19.854Z,1.40
2018-09-22T00:13:48.018Z,1.77
2018-09-22T00:16:16.172Z,1.77
2018-09-22T00:18:44.332Z,1.53
2018-09-22T00:21:12.695Z,1.80
2018-09-22T00:23:40.860Z,1.67
2018-09-22T00:26:09.010Z,2.00
2018-09-22T00:28:37.175Z,2.10
2018-09-22T00:31:05.379Z,2.10
2018-09-22T00:33:33.545Z,2.10
2018-09-22T00:36:01.696Z,1.70
2018-09-22T00:38:29.846Z,1.93
2018-09-22T00:40:57.980Z,1.70
2018-09-22T00:43:26.139Z,2.10
2018-09-22T00:45:54.283Z,1.70
2018-09-22T00:48:22.457Z,1.93
2018-09-22T00:50:50.600Z,1.87
2018-09-22T00:53:18.742Z,1.70
2018-09-22T00:55:46.879Z,1.97
2018-09-22T00:58:15.017Z,2.00
2018-09-22T01:00:43.160Z,2.10
2018-09-22T01:03:11.305Z,1.83
2018-09-22T01:05:39.481Z,1.87
2018-09-22T01:08:07.663Z,1.97
2018-09-22T01:10:35.814Z,2.40
2018-09-22T01:13:03.953Z,2.53
2018-09-22T01:15:32.159Z,2.47
2018-09-22T01:18:00.232Z,1.90
2018-09-22T01:20:28.402Z,1.63
2018-09-22T01:22:56.526Z,1.80
2018-09-22T01:25:24.674Z,2.47
2018-09-22T01:27:52.810Z,1.80
2018-09-22T01:30:20.962Z,1.80
2018-09-22T01:32:49.119Z,2.07
2018-09-22T01:35:17.253Z,2.03
2018-09-22T01:37:45.400Z,1.93
2018-09-22T01:40:13.544Z,1.77
2018-09-22T01:42:41.718Z,1.80
2018-09-22T01:45:09.873Z,1.80
2018-09-22T01:47:38.045Z,1.93
2018-09-22T01:50:06.307Z,2.30
2018-09-22T01:52:34.561Z,1.87
2018-09-22T01:55:02.666Z,1.93
2018-09-22T01:57:30.841Z,1.77
2018-09-22T01:59:59.770Z,1.97
2018-09-22T02:02:27.929Z,2.10
2018-09-22T02:04:56.109Z,1.57
2018-09-22T02:07:24.261Z,2.03
2018-09-22T02:09:52.487Z,1.97
2018-09-22T02:12:20.668Z,1.90
2018-09-22T02:14:48.852Z,1.80
2018-09-22T02:17:17.007Z,1.50
2018-09-22T02:19:45.152Z,1.70
2018-09-22T02:22:13.352Z,1.63
2018-09-22T02:24:41.537Z,1.70
2018-09-22T02:27:09.701Z,2.03
2018-09-22T02:29:37.873Z,1.40
2018-09-22T02:32:06.177Z,1.60
2018-09-22T02:34:34.363Z,1.20
2018-09-22T02:37:02.554Z,1.53
2018-09-22T02:39:30.702Z,1.27
2018-09-22T02:41:58.841Z,1.60
2018-09-22T02:44:26.984Z,1.70
2018-09-22T02:46:55.125Z,1.37
2018-09-22T02:49:23.268Z,1.67
2018-09-22T02:51:51.453Z,1.30
2018-09-22T02:54:19.706Z,1.37
2018-09-22T02:56:47.845Z,2.00
2018-09-22T02:59:15.987Z,1.20
2018-09-22T03:01:44.156Z,1.50
2018-09-22T03:04:12.286Z,1.50
2018-09-22T03:06:40.431Z,1.63
2018-09-22T03:09:10.030Z,1.40
2018-09-22T03:11:38.162Z,2.10
2018-09-22T03:14:06.461Z,1.63
2018-09-22T03:16:34.609Z,2.00
2018-09-22T03:19:02.772Z,1.50
2018-09-22T03:21:30.902Z,1.67
2018-09-22T03:23:59.044Z,2.20
2018-09-22T03:26:27.222Z,1.73
2018-09-22T03:28:55.366Z,1.50
2018-09-22T03:31:23.502Z,1.70
2018-09-22T03:33:51.637Z,1.70
2018-09-22T03:36:19.839Z,2.00
2018-09-22T03:38:47.986Z,2.40
2018-09-22T03:41:16.173Z,2.17
2018-09-22T03:43:44.362Z,1.60
2018-09-22T03:46:12.506Z,1.63
2018-09-22T03:48:40.693Z,1.67
2018-09-22T03:51:08.886Z,1.90
2018-09-22T03:53:37.026Z,2.03
2018-09-22T03:56:05.185Z,2.20
2018-09-22T03:58:33.321Z,1.57
2018-09-22T04:01:01.466Z,1.73
2018-09-22T04:03:29.603Z,1.43
2018-09-22T04:05:57.728Z,1.83
2018-09-22T04:08:25.856Z,2.93
2018-09-22T04:10:54.012Z,1.67
2018-09-22T04:13:22.135Z,1.70
2018-09-22T04:15:50.314Z,1.60
2018-09-22T04:18:18.456Z,2.03
2018-09-22T04:20:46.585Z,2.10
2018-09-22T04:23:14.747Z,2.33
2018-09-22T04:25:42.890Z,2.07
2018-09-22T04:28:11.027Z,1.60
2018-09-22T04:30:39.181Z,1.70
2018-09-22T04:33:07.323Z,1.90
2018-09-22T04:35:35.458Z,2.10
2018-09-22T04:38:03.800Z,1.60
2018-09-22T04:40:31.974Z,1.40
2018-09-22T04:43:00.153Z,1.67
2018-09-22T04:45:28.310Z,1.20
2018-09-22T04:47:56.470Z,1.50
2018-09-22T04:50:24.721Z,1.37
2018-09-22T04:52:52.890Z,1.50
2018-09-22T04:55:21.061Z,1.53
2018-09-22T04:57:49.221Z,1.80
2018-09-22T05:00:17.393Z,1.43
2018-09-22T05:02:45.565Z,1.73
2018-09-22T05:05:13.742Z,2.10
2018-09-22T05:07:41.918Z,2.40
2018-09-22T05:10:10.073Z,2.20
2018-09-22T05:12:38.245Z,1.77
2018-09-22T05:15:06.439Z,1.70
2018-09-22T05:17:34.646Z,1.90
2018-09-22T05:20:02.810Z,2.13
2018-09-22T05:22:30.973Z,2.10
2018-09-22T05:24:59.146Z,1.70
2018-09-22T05:27:27.452Z,1.90
2018-09-22T05:29:55.621Z,1.63
2018-09-22T05:32:23.773Z,1.50
2018-09-22T05:34:52.013Z,1.60
2018-09-22T05:37:20.190Z,1.90
2018-09-22T05:39:48.709Z,1.70
2018-09-22T05:42:16.952Z,1.60
2018-09-22T05:44:45.186Z,2.23
2018-09-22T05:47:13.568Z,2.37
2018-09-22T05:49:41.740Z,1.73
2018-09-22T05:52:09.990Z,1.63
2018-09-22T05:54:38.193Z,1.90
2018-09-22T05:57:06.526Z,1.30
2018-09-22T05:59:34.741Z,1.67
2018-09-22T06:02:02.899Z,2.00
2018-09-22T06:04:31.061Z,1.60
2018-09-22T06:06:59.613Z,1.90
2018-09-22T06:09:27.793Z,1.97
2018-09-22T06:11:56.047Z,1.60
2018-09-22T06:14:24.301Z,1.97
2018-09-22T06:16:52.514Z,2.20
2018-09-22T06:19:20.702Z,1.83
2018-09-22T06:21:48.857Z,1.93
2018-09-22T06:24:17.013Z,1.50
2018-09-22T06:26:46.337Z,1.93
2018-09-22T06:29:14.541Z,1.60
2018-09-22T06:31:42.757Z,1.43
2018-09-22T06:34:11.054Z,1.40
2018-09-22T06:36:39.226Z,1.43
2018-09-22T06:39:08.737Z,1.60
2018-09-22T06:41:37.065Z,1.47
2018-09-22T06:44:05.211Z,1.60
2018-09-22T06:46:33.461Z,2.50
2018-09-22T06:49:01.677Z,1.77
2018-09-22T06:51:29.862Z,1.50
2018-09-22T06:53:58.038Z,2.50
2018-09-22T06:56:26.184Z,1.83
2018-09-22T06:58:54.318Z,1.70
2018-09-22T07:01:22.489Z,2.00
2018-09-22T07:03:50.801Z,1.17
2018-09-22T07:06:19.029Z,1.33
2018-09-22T07:08:47.113Z,1.33
2018-09-22T07:11:15.296Z,1.90
2018-09-22T07:13:43.461Z,1.10
2018-09-22T07:16:11.616Z,1.67
2018-09-22T07:18:39.740Z,1.50
2018-09-22T07:21:09.140Z,1.50
2018-09-22T07:23:37.312Z,1.33
2018-09-22T07:26:05.773Z,1.73
2018-09-22T07:28:34.313Z,1.80
2018-09-22T07:31:02.490Z,1.33
2018-09-22T07:33:30.621Z,1.70
2018-09-22T07:35:59.095Z,1.57
2018-09-22T07:38:31.181Z,1.70
2018-09-22T07:40:59.330Z,1.30
2018-09-22T07:43:27.972Z,1.97
2018-09-22T07:45:56.124Z,1.47
2018-09-22T07:48:24.267Z,1.40
2018-09-22T07:50:52.457Z,1.27
2018-09-22T07:53:24.293Z,1.70
2018-09-22T07:55:52.458Z,1.40
2018-09-22T07:58:20.600Z,1.53
2018-09-22T08:00:48.807Z,1.33
2018-09-22T08:03:16.950Z,1.40
2018-09-22T08:05:45.108Z,1.70
2018-09-22T08:08:13.252Z,1.37
2018-09-22T08:10:41.393Z,1.37
2018-09-22T08:13:09.546Z,1.30
2018-09-22T08:15:37.710Z,1.50
2018-09-22T08:18:05.857Z,1.50
2018-09-22T08:20:33.998Z,1.17
2018-09-22T08:23:02.148Z,1.30
2018-09-22T08:25:30.316Z,1.50
2018-09-22T08:27:58.574Z,1.20
2018-09-22T08:30:26.783Z,1.63
2018-09-22T08:32:54.950Z,1.70
2018-09-22T08:35:23.073Z,1.63
2018-09-22T08:37:51.217Z,1.70
2018-09-22T08:40:19.397Z,1.33
2018-09-22T08:42:47.584Z,1.30
2018-09-22T08:45:19.066Z,1.60
2018-09-22T08:47:47.251Z,1.40
2018-09-22T08:50:15.410Z,1.50
2018-09-22T08:52:43.574Z,1.30
2018-09-22T08:55:11.743Z,1.27
2018-09-22T08:57:39.927Z,1.33
2018-09-22T09:00:08.165Z,1.30
2018-09-22T09:02:36.331Z,1.30
2018-09-22T09:05:04.593Z,1.50
2018-09-22T09:07:32.701Z,1.50
2018-09-22T09:10:00.945Z,1.50
2018-09-22T09:12:29.144Z,1.17
2018-09-22T09:14:57.334Z,1.30
2018-09-22T09:17:25.524Z,1.13
2018-09-22T09:19:53.710Z,1.83
2018-09-22T09:22:21.910Z,1.10
2018-09-22T09:24:50.085Z,1.57
2018-09-22T09:27:18.280Z,1.77
2018-09-22T09:29:46.413Z,1.53
2018-09-22T09:32:16.703Z,1.60
2018-09-22T09:34:45.498Z,1.27
2018-09-22T09:37:13.666Z,0.83
2018-09-22T09:39:41.848Z,1.30
2018-09-22T09:42:10.021Z,1.30
2018-09-22T09:44:38.205Z,1.30
2018-09-22T09:47:06.393Z,1.10
2018-09-22T09:49:34.575Z,1.50
2018-09-22T09:52:02.753Z,1.70
2018-09-22T09:54:30.942Z,0.90
2018-09-22T09:56:59.090Z,1.50
2018-09-22T09:59:27.249Z,1.57
2018-09-22T10:01:55.421Z,1.40
2018-09-22T10:04:23.616Z,1.40
2018-09-22T10:06:51.765Z,1.13
2018-09-22T10:09:19.941Z,2.23
2018-09-22T10:11:48.937Z,1.60
2018-09-22T10:14:17.117Z,1.00
2018-09-22T10:16:45.297Z,1.40
2018-09-22T10:19:13.467Z,1.20
2018-09-22T10:21:41.642Z,1.20
2018-09-22T10:24:09.810Z,1.23
2018-09-22T10:26:37.968Z,1.90
2018-09-22T10:29:06.145Z,0.93
2018-09-22T10:31:34.403Z,1.27
2018-09-22T10:34:02.582Z,1.63
2018-09-22T10:36:30.832Z,1.43
2018-09-22T10:38:59.001Z,1.63
2018-09-22T10:41:27.254Z,1.17
2018-09-22T10:43:55.465Z,1.40
2018-09-22T10:46:23.641Z,1.50
2018-09-22T10:48:51.851Z,1.50
2018-09-22T10:51:20.010Z,1.10
2018-09-22T10:53:48.197Z,1.10
2018-09-22T10:56:16.393Z,1.10
2018-09-22T10:58:44.863Z,1.30
2018-09-22T11:01:13.023Z,1.00
2018-09-22T11:03:41.200Z,1.20
2018-09-22T11:06:09.377Z,1.10
2018-09-22T11:08:37.784Z,1.40
2018-09-22T11:11:06.076Z,1.50
2018-09-22T11:13:34.262Z,1.80
2018-09-22T11:16:02.433Z,1.13
2018-09-22T11:18:30.616Z,0.83
2018-09-22T11:20:58.806Z,1.10
2018-09-22T11:23:27.000Z,1.40
2018-09-22T11:25:55.168Z,1.40
2018-09-22T11:28:23.425Z,1.30
2018-09-22T11:30:51.665Z,1.37
2018-09-22T11:33:19.849Z,1.23
2018-09-22T11:35:48.025Z,1.57
2018-09-22T11:38:16.319Z,1.60
2018-09-22T11:40:44.589Z,1.50
2018-09-22T11:43:12.753Z,1.57
2018-09-22T11:45:40.926Z,1.30
2018-09-22T11:48:09.097Z,1.50
2018-09-22T11:50:37.305Z,1.60
2018-09-22T11:53:06.108Z,1.20
2018-09-22T11:55:34.329Z,1.03
2018-09-22T11:58:02.535Z,1.17
2018-09-22T12:00:30.694Z,1.40
2018-09-22T12:02:58.881Z,1.23
2018-09-22T12:05:27.049Z,1.00
2018-09-22T12:07:55.275Z,0.87
2018-09-22T12:10:23.461Z,1.30
2018-09-22T12:12:51.645Z,1.40
2018-09-22T12:15:19.835Z,1.10
2018-09-22T12:17:48.020Z,1.07
2018-09-22T12:20:16.228Z,1.10
2018-09-22T12:22:44.435Z,1.37
2018-09-22T12:25:12.645Z,1.23
2018-09-22T12:27:41.019Z,1.10
2018-09-22T12:30:09.216Z,1.20
2018-09-22T12:32:37.425Z,1.13
2018-09-22T12:35:05.611Z,1.57
2018-09-22T12:37:35.476Z,1.20
2018-09-22T12:40:03.832Z,1.40
2018-09-22T12:42:32.016Z,1.70
2018-09-22T12:45:00.173Z,1.20
2018-09-22T12:47:28.354Z,1.07
2018-09-22T12:49:56.595Z,1.17
2018-09-22T12:52:25.130Z,1.40
2018-09-22T12:54:53.314Z,1.20
2018-09-22T12:57:21.491Z,1.37
2018-09-22T12:59:49.695Z,0.80
2018-09-22T13:02:18.124Z,1.50
2018-09-22T13:04:46.294Z,1.33
2018-09-22T13:07:14.462Z,1.00
2018-09-22T13:09:43.523Z,1.47
2018-09-22T13:12:11.696Z,1.20
2018-09-22T13:14:39.866Z,1.53
2018-09-22T13:17:09.181Z,1.00
2018-09-22T13:19:37.349Z,1.10
2018-09-22T13:22:05.669Z,1.00
2018-09-22T13:24:33.837Z,0.77
2018-09-22T13:27:02.002Z,1.07
2018-09-22T13:29:30.454Z,1.17
2018-09-22T13:31:58.806Z,1.20
2018-09-22T13:34:26.993Z,1.90
2018-09-22T13:36:55.174Z,1.23
2018-09-22T13:39:23.855Z,1.27
2018-09-22T13:41:52.017Z,0.90
2018-09-22T13:44:20.199Z,1.20
2018-09-22T13:46:48.601Z,1.03
2018-09-22T13:49:16.757Z,1.10
2018-09-22T13:51:45.050Z,0.93
2018-09-22T13:54:13.241Z,0.97
2018-09-22T13:56:41.409Z,1.30
2018-09-22T13:59:09.980Z,0.87
2018-09-22T14:01:38.190Z,1.23
2018-09-22T14:04:06.493Z,1.50
2018-09-22T14:06:34.704Z,1.63
2018-09-22T14:09:02.996Z,1.10
2018-09-22T14:11:31.168Z,1.30
2018-09-22T14:13:59.336Z,2.40
2018-09-22T14:16:27.505Z,1.27
2018-09-22T14:18:55.696Z,1.03
2018-09-22T14:21:23.916Z,1.13
2018-09-22T14:23:52.050Z,1.00
2018-09-22T14:26:20.207Z,1.03
2018-09-22T14:28:48.383Z,1.00
2018-09-22T14:31:16.614Z,1.00
2018-09-22T14:33:44.789Z,1.37
2018-09-22T14:36:13.037Z,1.20
2018-09-22T14:38:41.285Z,1.27
2018-09-22T14:41:09.449Z,1.03
2018-09-22T14:43:37.625Z,1.20
2018-09-22T14:46:05.794Z,1.10
2018-09-22T14:48:33.957Z,1.10
2018-09-22T14:51:02.151Z,0.97
2018-09-22T14:53:30.306Z,1.33
2018-09-22T14:55:58.493Z,0.93
2018-09-22T14:58:26.664Z,1.60
2018-09-22T15:00:54.838Z,1.60
2018-09-22T15:03:23.009Z,1.50
2018-09-22T15:05:51.182Z,1.20
2018-09-22T15:08:19.461Z,1.00
2018-09-22T15:10:47.620Z,1.30
2018-09-22T15:13:15.793Z,1.00
2018-09-22T15:15:43.962Z,1.33
2018-09-22T15:18:12.155Z,1.20
2018-09-22T15:20:40.343Z,1.00
2018-09-22T15:23:08.713Z,1.10
2018-09-22T15:25:36.895Z,1.03
2018-09-22T15:28:05.101Z,1.50
2018-09-22T15:30:33.600Z,1.10
2018-09-22T15:33:01.762Z,1.03
2018-09-22T15:35:29.939Z,1.77
2018-09-22T15:37:58.105Z,1.07
2018-09-22T15:40:26.290Z,1.50
2018-09-22T15:42:54.475Z,1.30
2018-09-22T15:45:22.660Z,1.20
2018-09-22T15:47:50.817Z,1.10
2018-09-22T15:50:18.987Z,1.23
2018-09-22T15:52:47.140Z,0.87
2018-09-22T15:55:15.316Z,1.20
2018-09-22T15:57:43.490Z,1.10
2018-09-22T16:00:11.709Z,1.40
2018-09-22T16:02:39.881Z,1.03
2018-09-22T16:05:08.048Z,1.00
2018-09-22T16:07:36.305Z,1.27
2018-09-22T16:10:04.619Z,1.33
2018-09-22T16:12:32.794Z,1.27
2018-09-22T16:15:00.957Z,1.47
2018-09-22T16:17:29.217Z,1.43
2018-09-22T16:19:57.542Z,1.30
2018-09-22T16:22:25.782Z,1.30
2018-09-22T16:24:53.982Z,1.70
2018-09-22T16:27:22.723Z,1.40
2018-09-22T16:29:50.906Z,1.00
2018-09-22T16:32:19.086Z,1.23
2018-09-22T16:34:47.277Z,1.73
2018-09-22T16:37:15.452Z,1.30
2018-09-22T16:39:43.804Z,1.23
2018-09-22T16:42:12.001Z,1.00
2018-09-22T16:44:40.158Z,1.70
2018-09-22T16:47:08.325Z,1.40
2018-09-22T16:49:36.533Z,1.40
2018-09-22T16:52:04.680Z,1.47
2018-09-22T16:54:32.849Z,1.60
2018-09-22T16:57:01.040Z,1.40
2018-09-22T16:59:29.188Z,1.73
2018-09-22T17:01:57.342Z,1.70
2018-09-22T17:04:25.497Z,1.50
2018-09-22T17:06:53.670Z,2.27
2018-09-22T17:09:21.845Z,1.50
2018-09-22T17:11:50.031Z,1.73
2018-09-22T17:14:18.191Z,1.20
2018-09-22T17:16:46.373Z,1.47
2018-09-22T17:19:14.633Z,1.30
2018-09-22T17:21:42.821Z,1.37
2018-09-22T17:24:11.156Z,1.60
2018-09-22T17:26:39.338Z,1.50
2018-09-22T17:29:07.493Z,1.40
2018-09-22T17:31:35.813Z,1.70
2018-09-22T17:34:03.947Z,1.50
2018-09-22T17:36:32.097Z,1.47
2018-09-22T17:39:00.405Z,1.80
2018-09-22T17:41:28.656Z,1.30
2018-09-22T17:43:57.215Z,1.93
2018-09-22T17:46:25.429Z,1.80
2018-09-22T17:48:53.577Z,1.70
2018-09-22T17:51:21.757Z,1.60
2018-09-22T17:53:49.941Z,1.50
2018-09-22T17:56:18.177Z,2.10
2018-09-22T17:58:46.335Z,1.63
2018-09-22T18:01:14.507Z,1.93
2018-09-22T18:03:42.682Z,1.57
2018-09-22T18:06:10.851Z,1.70
2018-09-22T18:08:39.059Z,2.27
2018-09-22T18:11:07.305Z,1.53
2018-09-22T18:13:35.501Z,2.13
2018-09-22T18:16:03.661Z,1.90
2018-09-22T18:18:31.844Z,1.53
2018-09-22T18:21:00.013Z,1.67
2018-09-22T18:23:28.174Z,1.80
2018-09-22T18:25:56.314Z,1.90
2018-09-22T18:28:24.481Z,1.73
2018-09-22T18:30:52.645Z,1.50
2018-09-22T18:33:20.945Z,1.47
2018-09-22T18:35:49.118Z,1.33
2018-09-22T18:38:17.287Z,1.77
2018-09-22T18:40:45.751Z,1.50
2018-09-22T18:43:13.921Z,1.63
2018-09-22T18:45:42.093Z,1.93
2018-09-22T18:48:10.317Z,2.20
2018-09-22T18:50:38.478Z,1.83
2018-09-22T18:53:06.676Z,1.83
2018-09-22T18:55:34.890Z,2.50
2018-09-22T18:58:03.013Z,2.30
2018-09-22T19:00:31.173Z,3.77
2018-09-22T19:02:59.349Z,3.17
2018-09-22T19:05:27.505Z,3.17
2018-09-22T19:07:55.695Z,3.53
2018-09-22T19:10:23.828Z,4.00
2018-09-22T19:12:52.001Z,2.50
2018-09-22T19:15:24.366Z,2.90
2018-09-22T19:17:57.267Z,2.50
2018-09-22T19:20:34.541Z,2.30
2018-09-22T19:23:06.813Z,2.40
2018-09-22T19:25:37.434Z,2.00
2018-09-22T19:28:14.333Z,2.07
2018-09-22T19:30:50.784Z,2.17
2018-09-22T19:33:25.007Z,1.87
2018-09-22T19:36:04.762Z,1.70
2018-09-22T19:38:41.618Z,2.47
2018-09-22T19:41:14.188Z,2.07
2018-09-22T19:43:46.977Z,2.00
2018-09-22T19:46:20.875Z,1.90
2018-09-22T19:48:52.449Z,2.03
2018-09-22T19:51:22.551Z,2.10
2018-09-22T19:53:51.251Z,1.97
2018-09-22T19:56:19.465Z,2.10
2018-09-22T19:58:47.646Z,1.63
2018-09-22T20:01:15.834Z,2.93
2018-09-22T20:03:44.013Z,2.20
2018-09-22T20:06:12.163Z,2.27
2018-09-22T20:08:40.337Z,2.10
2018-09-22T20:11:08.493Z,2.27
2018-09-22T20:13:36.677Z,2.17
2018-09-22T20:16:04.873Z,2.17
2018-09-22T20:18:33.167Z,1.93
2018-09-22T20:21:01.344Z,2.10
2018-09-22T20:23:29.535Z,2.10
2018-09-22T20:25:57.701Z,1.80
2018-09-22T20:28:25.885Z,2.03
2018-09-22T20:30:54.181Z,1.87
2018-09-22T20:33:22.406Z,1.87
2018-09-22T20:35:50.606Z,1.80
2018-09-22T20:38:18.723Z,1.90
2018-09-22T20:40:46.880Z,2.10
2018-09-22T20:43:15.154Z,2.03
2018-09-22T20:45:43.312Z,1.90
2018-09-22T20:48:11.461Z,1.60
2018-09-22T20:50:39.745Z,1.70
2018-09-22T20:53:07.832Z,1.60
2018-09-22T20:55:36.079Z,2.33
2018-09-22T20:58:04.220Z,1.50
2018-09-22T21:00:32.347Z,1.67
2018-09-22T21:03:00.600Z,1.80
2018-09-22T21:05:28.757Z,1.80
2018-09-22T21:07:56.909Z,1.50
2018-09-22T21:10:25.061Z,1.70
2018-09-22T21:12:53.193Z,1.87
2018-09-22T21:15:21.329Z,1.87
2018-09-22T21:17:49.449Z,3.07
2018-09-22T21:20:17.566Z,2.53
2018-09-22T21:22:45.685Z,2.27
2018-09-22T21:25:13.848Z,1.80
2018-09-22T21:27:41.972Z,1.73
2018-09-22T21:30:10.113Z,2.17
2018-09-22T21:32:38.268Z,1.50
2018-09-22T21:35:07.152Z,2.77
2018-09-22T21:37:36.249Z,1.90
2018-09-22T21:40:04.425Z,2.20
2018-09-22T21:42:32.585Z,2.07
2018-09-22T21:45:00.739Z,2.13
2018-09-22T21:47:28.916Z,2.50
2018-09-22T21:49:57.088Z,2.60
2018-09-22T21:52:25.253Z,2.23
2018-09-22T21:54:53.444Z,2.67
2018-09-22T21:57:21.608Z,2.00
2018-09-22T21:59:49.772Z,2.17
2018-09-22T22:02:17.945Z,1.50
2018-09-22T22:04:46.104Z,2.20
2018-09-22T22:07:14.264Z,1.87
2018-09-22T22:09:42.428Z,2.20
2018-09-22T22:12:10.600Z,1.80
2018-09-22T22:14:38.752Z,1.70
2018-09-22T22:17:06.920Z,1.87
2018-09-22T22:19:35.109Z,1.93
2018-09-22T22:22:03.285Z,1.80
2018-09-22T22:24:31.448Z,2.03
2018-09-22T22:26:59.661Z,1.80
2018-09-22T22:29:27.832Z,1.93
2018-09-22T22:31:55.980Z,2.10
2018-09-22T22:34:24.184Z,2.53
2018-09-22T22:36:52.369Z,2.37
2018-09-22T22:39:20.528Z,1.80
2018-09-22T22:41:48.676Z,2.70
2018-09-22T22:44:16.852Z,2.13
2018-09-22T22:46:45.033Z,2.33
2018-09-22T22:49:13.174Z,2.47
2018-09-22T22:51:41.319Z,2.40
2018-09-22T22:54:09.466Z,2.23
2018-09-22T22:56:37.598Z,2.57
2018-09-22T22:59:05.810Z,2.53
2018-09-22T23:01:33.948Z,2.00
2018-09-22T23:04:02.099Z,2.23
2018-09-22T23:06:30.262Z,2.50
2018-09-22T23:08:58.412Z,2.40
2018-09-22T23:11:26.569Z,2.40
2018-09-22T23:13:54.727Z,2.90
2018-09-22T23:16:22.869Z,2.83
2018-09-22T23:18:51.029Z,2.80
2018-09-22T23:21:19.177Z,2.87
2018-09-22T23:23:47.346Z,2.93
2018-09-22T23:26:15.513Z,2.37
2018-09-22T23:28:43.658Z,2.00
2018-09-22T23:31:11.792Z,2.17
2018-09-22T23:33:39.952Z,1.80
2018-09-22T23:36:08.105Z,1.60
2018-09-22T23:38:36.445Z,1.50
2018-09-22T23:41:04.601Z,1.70
2018-09-22T23:43:32.757Z,1.97
2018-09-22T23:46:00.930Z,1.93
2018-09-22T23:48:29.113Z,2.20
2018-09-22T23:50:57.270Z,2.40
2018-09-22T23:53:25.420Z,2.50
2018-09-22T23:55:53.560Z,2.60
2018-09-22T23:58:21.729Z,2.10
